Time;durP1;ratioP1;P1;durP2;ratioP2;P2;SDS_P1;SDS_P2;PMS_P1;PMS_P2;Temp;Humidity;BMP_temperature;BMP_pressure;BME280_temperature;BME280_humidity;BME280_pressure;Samples;Min_cycle;Max_cycle;Signal;HPM_P1;HPM_P2
2022/06/12 00:00:39;;;;;;;4.90;1.58;;;21.20;99.10;;;;;;5038321;28;20025;-84
2022/06/12 00:03:07;;;;;;;6.40;1.83;;;21.20;99.10;;;;;;5056511;28;20104;-84
2022/06/12 00:05:37;;;;;;;7.20;1.80;;;21.10;99.00;;;;;;5038312;28;20052;-84
2022/06/12 00:08:05;;;;;;;7.28;2.00;;;21.10;99.00;;;;;;5038271;28;20047;-84
2022/06/12 00:10:30;;;;;;;5.60;1.50;;;21.10;99.00;;;;;;5056280;28;20025;-84
2022/06/12 00:12:56;;;;;;;5.55;1.77;;;21.10;99.10;;;;;;5056345;28;20082;-84
2022/06/12 00:15:25;;;;;;;5.10;1.70;;;21.10;99.10;;;;;;5038061;28;20029;-84
2022/06/12 00:17:53;;;;;;;6.00;2.00;;;21.10;99.00;;;;;;5056143;28;20495;-84
2022/06/12 00:20:19;;;;;;;7.75;1.55;;;21.00;99.00;;;;;;5038026;28;20484;-84
2022/06/12 00:22:46;;;;;;;4.82;1.73;;;21.10;99.10;;;;;;5037976;28;20096;-84
2022/06/12 00:25:14;;;;;;;2.50;1.38;;;21.00;99.00;;;;;;5037867;28;20476;-84
2022/06/12 00:27:41;;;;;;;3.05;1.50;;;21.00;99.00;;;;;;5055659;28;20108;-84
2022/06/12 00:30:10;;;;;;;7.18;1.70;;;21.00;99.00;;;;;;5037662;28;20116;-84
2022/06/12 00:32:37;;;;;;;3.40;1.50;;;21.00;99.00;;;;;;5055853;28;20104;-84
2022/06/12 00:35:06;;;;;;;4.80;1.85;;;21.00;99.00;;;;;;5037544;28;20021;-83
2022/06/12 00:37:31;;;;;;;7.13;2.00;;;21.00;99.00;;;;;;5050070;28;20033;-83
2022/06/12 00:39:57;;;;;;;7.32;2.10;;;21.00;99.00;;;;;;5018346;28;20052;-84
2022/06/12 00:42:28;;;;;;;3.78;1.80;;;21.00;99.00;;;;;;5017689;28;20141;-84
2022/06/12 00:44:56;;;;;;;4.72;1.73;;;21.00;99.00;;;;;;5017627;28;20029;-84
2022/06/12 00:47:23;;;;;;;4.90;2.00;;;21.00;99.00;;;;;;5017610;28;20022;-84
2022/06/12 00:50:05;;;;;;;4.47;1.80;;;21.00;99.00;;;;;;5017512;28;20044;-84
2022/06/12 00:52:40;;;;;;;6.38;1.75;;;21.00;99.00;;;;;;5017582;28;20427;-84
2022/06/12 00:55:58;;;;;;;4.82;2.00;;;21.00;99.00;;;;;;5017571;28;20531;-84
2022/06/12 00:58:26;;;;;;;2.17;1.48;;;20.90;98.90;;;;;;4935979;29;20063;-83
2022/06/12 01:00:52;;;;;;;5.78;1.63;;;20.90;98.90;;;;;;4935823;29;20063;-84
2022/06/12 01:03:18;;;;;;;4.05;2.00;;;20.90;99.00;;;;;;4976553;28;20104;-84
2022/06/12 01:08:30;;;;;;;3.58;1.58;;;20.90;98.90;;;;;;5035159;28;20091;-84
2022/06/12 01:11:00;;;;;;;4.18;1.70;;;20.90;98.90;;;;;;5001052;28;20080;-84
2022/06/12 01:13:35;;;;;;;6.50;1.88;;;20.80;98.90;;;;;;5034907;28;20485;-83
2022/06/12 01:16:05;;;;;;;5.43;1.75;;;20.90;99.00;;;;;;5017126;28;20029;-84
2022/06/12 01:18:36;;;;;;;7.88;1.90;;;20.90;99.00;;;;;;5034932;28;20096;-84
2022/06/12 01:21:28;;;;;;;4.80;1.77;;;20.80;99.00;;;;;;5034852;28;20063;-84
2022/06/12 01:24:07;;;;;;;5.95;1.70;;;20.80;98.90;;;;;;5017061;28;20053;-84
2022/06/12 01:26:58;;;;;;;4.50;1.88;;;20.80;99.00;;;;;;5017608;28;20485;-84
2022/06/12 01:29:33;;;;;;;3.92;1.60;;;20.80;98.90;;;;;;5016865;28;20112;-84
2022/06/12 01:32:14;;;;;;;3.72;1.63;;;20.80;98.90;;;;;;5016914;28;20036;-84
2022/06/12 01:34:46;;;;;;;5.90;1.80;;;20.80;98.90;;;;;;5016857;28;20384;-83
2022/06/12 01:37:20;;;;;;;3.83;1.55;;;20.80;98.90;;;;;;5016564;28;20025;-84
2022/06/12 01:39:55;;;;;;;;;;;20.70;98.90;;;;;;5016673;28;20053;-84
2022/06/12 01:43:05;;;;;;;6.65;1.75;;;20.80;98.90;;;;;;5016794;28;19909;-84
2022/06/12 01:45:45;;;;;;;6.63;1.60;;;20.80;98.90;;;;;;5011795;28;20128;-84
2022/06/12 01:48:37;;;;;;;3.28;1.67;;;20.80;98.90;;;;;;5034396;28;20541;-84
2022/06/12 01:51:12;;;;;;;3.47;1.63;;;20.70;98.90;;;;;;5034235;28;20079;-84
2022/06/12 01:53:51;;;;;;;2.90;1.63;;;20.70;98.90;;;;;;5016549;28;20067;-84
2022/06/12 01:56:35;;;;;;;6.18;1.88;;;20.70;98.90;;;;;;5016753;28;20018;-84
2022/06/12 01:59:29;;;;;;;4.80;1.80;;;20.70;98.90;;;;;;5034096;28;20072;-84
2022/06/12 02:02:05;;;;;;;4.00;1.63;;;20.70;98.90;;;;;;5003443;28;20052;-84
2022/06/12 02:04:43;;;;;;;4.10;2.00;;;20.70;98.90;;;;;;5034343;28;20021;-84
2022/06/12 02:07:30;;;;;;;3.38;1.75;;;20.60;98.90;;;;;;5016898;28;20526;-84
2022/06/12 02:10:11;;;;;;;3.45;1.70;;;20.70;98.90;;;;;;5016218;28;20025;-84
2022/06/12 02:15:43;;;;;;;6.63;1.80;;;20.60;98.90;;;;;;5034248;28;20141;-84
2022/06/12 02:18:33;;;;;;;3.30;1.90;;;20.60;98.90;;;;;;5016159;28;20029;-84
2022/06/12 02:21:19;;;;;;;4.85;2.17;;;20.60;98.90;;;;;;5016161;28;20549;-83
2022/06/12 02:23:51;;;;;;;4.70;1.60;;;20.60;98.90;;;;;;5032516;28;20021;-83
2022/06/12 02:26:21;;;;;;;3.40;1.70;;;20.60;98.90;;;;;;5015948;28;20025;-84
2022/06/12 02:28:52;;;;;;;4.45;1.60;;;20.60;98.90;;;;;;5034238;28;20033;-84
2022/06/12 02:31:27;;;;;;;3.17;1.50;;;20.60;98.90;;;;;;5016809;28;20412;-84
2022/06/12 02:33:58;;;;;;;3.53;1.73;;;20.60;98.90;;;;;;5015833;28;20163;-84
2022/06/12 02:36:33;;;;;;;2.63;1.50;;;20.60;98.90;;;;;;5015893;28;20025;-84
2022/06/12 02:39:18;;;;;;;4.78;1.63;;;20.50;98.90;;;;;;5032672;28;20044;-84
2022/06/12 02:41:47;;;;;;;4.13;1.50;;;20.50;98.90;;;;;;5035577;28;20028;-84
2022/06/12 02:44:23;;;;;;;2.75;1.42;;;20.50;98.90;;;;;;5035425;28;20013;-84
2022/06/12 02:46:58;;;;;;;2.35;1.58;;;20.50;98.90;;;;;;5035478;28;20074;-83
2022/06/12 02:49:24;;;;;;;5.63;1.63;;;20.40;98.90;;;;;;5035047;28;20033;-84
2022/06/12 02:51:50;;;;;;;5.93;1.60;;;20.50;98.90;;;;;;5034870;28;20024;-84
2022/06/12 02:54:33;;;;;;;3.50;1.50;;;20.40;98.90;;;;;;5053220;28;20025;-84
2022/06/12 02:57:19;;;;;;;2.55;1.58;;;20.40;98.90;;;;;;5035398;28;20053;-84
2022/06/12 02:59:44;;;;;;;5.20;1.70;;;20.50;98.90;;;;;;5053447;28;20108;-84
2022/06/12 03:02:30;;;;;;;3.08;1.90;;;20.50;98.90;;;;;;5035334;28;20060;-84
2022/06/12 03:05:07;;;;;;;3.63;1.80;;;20.40;98.90;;;;;;5035310;28;20036;-84
2022/06/12 03:07:33;;;;;;;4.00;1.60;;;20.40;98.90;;;;;;5053127;28;20025;-84
2022/06/12 03:10:05;;;;;;;3.05;1.60;;;20.40;98.90;;;;;;5052989;28;20056;-84
2022/06/12 03:12:32;;;;;;;2.47;1.40;;;20.40;98.90;;;;;;5035254;28;20453;-84
2022/06/12 03:15:00;;;;;;;2.42;1.40;;;20.40;98.90;;;;;;5053050;28;20100;-84
2022/06/12 03:17:26;;;;;;;5.60;1.63;;;20.40;98.90;;;;;;5035068;28;20112;-84
2022/06/12 03:19:54;;;;;;;5.82;1.63;;;20.40;98.90;;;;;;5052976;28;20060;-84
2022/06/12 03:22:30;;;;;;;1.73;1.30;;;20.30;98.90;;;;;;5052929;28;20021;-84
2022/06/12 03:25:16;;;;;;;3.63;1.40;;;20.40;98.80;;;;;;5035122;28;20025;-84
2022/06/12 03:28:03;;;;;;;5.57;1.42;;;20.30;98.90;;;;;;5053201;28;20082;-83
2022/06/12 03:30:40;;;;;;;4.63;1.48;;;20.30;98.90;;;;;;5034961;28;20029;-83
2022/06/12 03:33:15;;;;;;;3.38;1.60;;;20.30;98.80;;;;;;5052919;28;20029;-84
2022/06/12 03:36:03;;;;;;;7.20;1.55;;;20.30;98.80;;;;;;5035054;28;20025;-84
2022/06/12 03:38:35;;;;;;;5.10;1.52;;;20.30;98.90;;;;;;5039843;28;20288;-84
2022/06/12 03:41:20;;;;;;;3.38;1.70;;;20.30;98.90;;;;;;5015204;28;20524;-84
2022/06/12 03:44:12;;;;;;;3.22;1.45;;;20.20;98.80;;;;;;5015195;28;20483;-83
2022/06/12 03:46:55;;;;;;;3.50;1.60;;;20.30;98.90;;;;;;5015191;28;20026;-84
2022/06/12 03:49:21;;;;;;;3.58;1.50;;;20.20;98.90;;;;;;5032718;28;20429;-84
2022/06/12 03:52:03;;;;;;;4.68;1.73;;;20.20;98.80;;;;;;5033316;28;20045;-84
2022/06/12 03:54:39;;;;;;;7.40;1.70;;;20.20;98.80;;;;;;5015035;28;20112;-84
2022/06/12 04:00:17;;;;;;;4.15;1.65;;;20.20;98.80;;;;;;5033253;28;20029;-83
2022/06/12 04:02:46;;;;;;;7.68;1.70;;;20.20;98.80;;;;;;5017755;28;20408;-84
2022/06/12 04:05:26;;;;;;;3.20;1.50;;;20.20;98.80;;;;;;5036330;28;20030;-84
2022/06/12 04:07:55;;;;;;;2.72;1.60;;;20.20;98.80;;;;;;5018589;28;20436;-84
2022/06/12 04:10:27;;;;;;;3.25;1.42;;;20.20;98.80;;;;;;5018407;28;20029;-84
2022/06/12 04:12:54;;;;;;;6.13;1.90;;;20.20;98.80;;;;;;5018499;28;20383;-84
2022/06/12 04:15:26;;;;;;;5.20;1.58;;;20.20;98.80;;;;;;5018420;28;20083;-84
2022/06/12 04:17:55;;;;;;;4.13;1.50;;;20.20;98.80;;;;;;5019233;28;20075;-84
2022/06/12 04:20:43;;;;;;;4.43;1.60;;;20.20;98.80;;;;;;5036305;28;20072;-84
2022/06/12 04:23:24;;;;;;;4.05;1.70;;;20.20;98.80;;;;;;5017865;28;20033;-84
2022/06/12 04:25:54;;;;;;;4.05;1.50;;;20.10;98.90;;;;;;5018236;28;20037;-84
2022/06/12 04:28:39;;;;;;;2.72;1.70;;;20.10;98.90;;;;;;5035936;28;20083;-84
2022/06/12 04:31:15;;;;;;;2.15;1.50;;;20.10;98.90;;;;;;5036151;28;20028;-84
2022/06/12 04:33:56;;;;;;;3.22;1.33;;;20.20;99.00;;;;;;5018161;28;20028;-84
2022/06/12 04:36:24;;;;;;;7.97;1.70;;;20.10;99.00;;;;;;5018015;28;20021;-84
2022/06/12 04:38:49;;;;;;;3.33;1.33;;;20.10;99.00;;;;;;5033577;28;20080;-84
2022/06/12 04:41:23;;;;;;;5.60;1.65;;;20.10;99.00;;;;;;5037656;28;20053;-84
2022/06/12 04:43:48;;;;;;;2.25;1.40;;;20.10;99.00;;;;;;5037759;28;20075;-84
2022/06/12 04:46:14;;;;;;;6.63;1.92;;;20.10;99.00;;;;;;5037648;28;20055;-83
2022/06/12 04:48:42;;;;;;;3.67;1.50;;;20.10;99.10;;;;;;5037544;28;20029;-84
2022/06/12 04:51:10;;;;;;;7.03;1.50;;;20.10;99.10;;;;;;5037421;28;20029;-84
2022/06/12 04:53:37;;;;;;;3.42;1.70;;;20.10;99.10;;;;;;5055366;28;20021;-83
2022/06/12 04:56:04;;;;;;;4.95;1.60;;;20.10;99.20;;;;;;5037752;28;20032;-84
2022/06/12 04:58:30;;;;;;;3.55;1.58;;;20.10;99.20;;;;;;5037385;28;20075;-84
2022/06/12 05:00:56;;;;;;;5.82;1.73;;;20.10;99.30;;;;;;5037223;28;20488;-84
2022/06/12 05:03:22;;;;;;;4.88;1.88;;;20.10;99.30;;;;;;5037285;28;20488;-84
2022/06/12 05:05:47;;;;;;;7.22;1.52;;;20.10;99.40;;;;;;5037318;28;20032;-84
2022/06/12 05:08:14;;;;;;;2.92;1.70;;;20.10;99.40;;;;;;5037239;28;20025;-84
2022/06/12 05:10:40;;;;;;;3.20;1.48;;;20.10;99.40;;;;;;5037045;28;20029;-84
2022/06/12 05:13:07;;;;;;;3.50;1.48;;;20.10;99.50;;;;;;5036269;28;20472;-83
2022/06/12 05:15:32;;;;;;;3.10;1.60;;;20.10;99.60;;;;;;5037035;28;20468;-83
2022/06/12 05:17:59;;;;;;;4.35;1.45;;;20.10;99.60;;;;;;5055121;28;20017;-83
2022/06/12 05:20:28;;;;;;;5.97;1.88;;;20.10;99.90;;;;;;5037027;28;20025;-83
2022/06/12 05:22:55;;;;;;;4.93;1.88;;;20.10;99.70;;;;;;5037140;28;20028;-84
2022/06/12 05:25:23;;;;;;;4.05;1.88;;;20.10;99.80;;;;;;5036854;28;20107;-84
2022/06/12 05:27:49;;;;;;;2.80;1.60;;;20.10;99.80;;;;;;5036842;28;20029;-84
2022/06/12 05:30:20;;;;;;;3.42;1.60;;;20.10;99.90;;;;;;5054598;28;20021;-84
2022/06/12 05:32:47;;;;;;;2.42;1.45;;;20.10;99.90;;;;;;5036852;28;20500;-83
2022/06/12 05:35:13;;;;;;;4.43;1.60;;;20.10;99.90;;;;;;5054815;28;20013;-83
2022/06/12 05:37:39;;;;;;;9.18;1.70;;;20.10;99.90;;;;;;5036425;28;20094;-83
2022/06/12 05:40:10;;;;;;;4.40;1.67;;;20.20;99.90;;;;;;5054433;28;20428;-83
2022/06/12 05:42:39;;;;;;;4.47;1.35;;;20.20;99.90;;;;;;5054746;28;20079;-83
2022/06/12 05:45:06;;;;;;;4.00;1.60;;;20.20;99.90;;;;;;5054402;28;20044;-83
2022/06/12 05:47:32;;;;;;;2.90;1.70;;;20.20;99.90;;;;;;5054171;28;20094;-83
2022/06/12 05:49:59;;;;;;;4.28;1.70;;;20.20;99.90;;;;;;5036314;28;20523;-84
2022/06/12 05:52:24;;;;;;;5.90;1.60;;;20.20;99.90;;;;;;5054247;28;20477;-83
2022/06/12 05:54:50;;;;;;;2.42;1.73;;;20.20;99.90;;;;;;5036322;28;20021;-83
2022/06/12 05:57:16;;;;;;;2.72;1.40;;;20.20;99.90;;;;;;5036324;28;20434;-83
2022/06/12 05:59:42;;;;;;;3.55;1.50;;;20.20;99.90;;;;;;5054297;28;20057;-84
2022/06/12 06:02:07;;;;;;;4.10;1.60;;;20.20;99.90;;;;;;5054064;28;20416;-83
2022/06/12 06:04:34;;;;;;;2.53;1.30;;;20.20;99.90;;;;;;5054053;28;20025;-83
2022/06/12 06:07:00;;;;;;;3.58;1.30;;;20.20;99.90;;;;;;5036293;28;20435;-83
2022/06/12 06:09:27;;;;;;;3.60;1.70;;;20.30;99.90;;;;;;5037083;28;20029;-84
2022/06/12 06:11:53;;;;;;;2.53;1.50;;;20.30;99.90;;;;;;5053888;28;20468;-83
2022/06/12 06:14:19;;;;;;;3.55;1.35;;;20.30;99.90;;;;;;5053876;28;20021;-83
2022/06/12 06:16:45;;;;;;;4.35;1.63;;;20.30;99.90;;;;;;5035951;28;20054;-83
2022/06/12 06:19:12;;;;;;;5.95;1.60;;;20.30;99.90;;;;;;5053990;28;20021;-83
2022/06/12 06:21:39;;;;;;;2.45;1.40;;;20.30;99.90;;;;;;5035865;28;20021;-83
2022/06/12 06:24:05;;;;;;;2.20;1.38;;;20.30;99.90;;;;;;5035694;28;20036;-83
2022/06/12 06:26:31;;;;;;;4.03;1.67;;;20.30;99.90;;;;;;5053541;28;20078;-83
2022/06/12 06:28:57;;;;;;;5.35;1.55;;;20.30;99.90;;;;;;5035655;28;20123;-84
2022/06/12 06:31:23;;;;;;;3.38;1.80;;;20.30;99.90;;;;;;5053443;28;20029;-83
2022/06/12 06:33:49;;;;;;;2.78;1.45;;;20.30;99.90;;;;;;5035668;28;20546;-83
2022/06/12 06:36:17;;;;;;;2.47;1.40;;;20.30;99.90;;;;;;5035656;28;20029;-83
2022/06/12 06:38:45;;;;;;;3.47;1.73;;;20.30;99.90;;;;;;5035406;28;20132;-83
2022/06/12 06:41:12;;;;;;;2.28;1.63;;;20.40;99.90;;;;;;5035534;28;20494;-83
2022/06/12 06:46:23;;;;;;;3.70;1.50;;;20.40;99.90;;;;;;5053939;28;20087;-83
2022/06/12 06:48:49;;;;;;;2.65;1.70;;;20.40;99.90;;;;;;5035472;28;20460;-83
2022/06/12 06:51:15;;;;;;;3.42;1.60;;;20.40;99.90;;;;;;5053340;28;20079;-83
2022/06/12 06:53:40;;;;;;;3.75;1.40;;;20.40;99.90;;;;;;5053336;28;20024;-83
2022/06/12 06:56:07;;;;;;;3.38;1.60;;;20.40;99.90;;;;;;5053533;28;20423;-83
2022/06/12 06:58:35;;;;;;;4.00;1.60;;;20.40;99.90;;;;;;5053150;28;20021;-83
2022/06/12 07:01:02;;;;;;;3.33;1.50;;;20.40;99.90;;;;;;5035227;28;20116;-83
2022/06/12 07:03:28;;;;;;;2.80;1.58;;;20.40;99.90;;;;;;5035397;28;20029;-83
2022/06/12 07:05:55;;;;;;;2.42;1.30;;;20.40;99.90;;;;;;5035572;28;20036;-83
2022/06/12 07:08:23;;;;;;;2.55;1.38;;;20.40;99.90;;;;;;5035265;28;20025;-83
2022/06/12 07:10:50;;;;;;;2.58;1.38;;;20.40;99.90;;;;;;5053302;28;20076;-83
2022/06/12 07:13:15;;;;;;;4.00;1.73;;;20.40;99.90;;;;;;5035281;28;20056;-83
2022/06/12 07:15:42;;;;;;;4.63;1.60;;;20.50;99.90;;;;;;5035216;28;20175;-83
2022/06/12 07:18:08;;;;;;;3.08;1.70;;;20.50;99.90;;;;;;5053001;28;20021;-83
2022/06/12 07:20:40;;;;;;;2.80;1.50;;;20.50;99.90;;;;;;5035437;28;20032;-83
2022/06/12 07:23:07;;;;;;;3.03;1.70;;;20.50;99.90;;;;;;5053306;28;20036;-83
2022/06/12 07:25:38;;;;;;;4.57;1.73;;;20.50;99.90;;;;;;5053199;28;20491;-83
2022/06/12 07:28:04;;;;;;;4.47;1.75;;;20.50;99.90;;;;;;5053274;28;20095;-83
2022/06/12 07:30:29;;;;;;;2.63;1.35;;;20.50;99.90;;;;;;5034987;28;20047;-83
2022/06/12 07:32:55;;;;;;;2.78;1.85;;;20.60;99.90;;;;;;5035067;28;20021;-83
2022/06/12 07:35:21;;;;;;;3.05;1.58;;;20.60;99.90;;;;;;5052869;28;20067;-83
2022/06/12 07:37:47;;;;;;;2.95;1.30;;;20.60;99.90;;;;;;5037683;28;20037;-83
2022/06/12 07:40:22;;;;;;;4.05;1.73;;;20.60;99.90;;;;;;5038801;28;20392;-83
2022/06/12 07:42:48;;;;;;;2.58;1.30;;;20.60;99.90;;;;;;5038880;28;20021;-83
2022/06/12 07:45:15;;;;;;;3.53;1.77;;;20.60;99.90;;;;;;5038713;28;20028;-83
2022/06/12 07:47:41;;;;;;;3.25;1.58;;;20.60;99.90;;;;;;5038772;28;20033;-84
2022/06/12 07:50:07;;;;;;;3.35;1.50;;;20.70;99.90;;;;;;5038541;28;20163;-83
2022/06/12 07:52:33;;;;;;;4.13;1.67;;;20.70;99.90;;;;;;5038588;28;20476;-83
2022/06/12 07:54:59;;;;;;;2.30;1.48;;;20.70;99.90;;;;;;5056423;28;20055;-83
2022/06/12 07:57:25;;;;;;;2.88;1.58;;;20.70;99.90;;;;;;5038510;28;20024;-83
2022/06/12 07:59:50;;;;;;;3.47;1.48;;;20.70;99.90;;;;;;5038489;28;20029;-83
2022/06/12 08:02:17;;;;;;;3.08;1.65;;;20.80;99.90;;;;;;5038477;28;20503;-83
2022/06/12 08:04:42;;;;;;;2.58;1.55;;;20.70;99.90;;;;;;5038588;28;20051;-83
2022/06/12 08:07:08;;;;;;;5.03;1.50;;;20.80;99.90;;;;;;5038332;28;20029;-83
2022/06/12 08:09:34;;;;;;;1.73;1.40;;;20.80;99.90;;;;;;5038195;28;20033;-83
2022/06/12 08:12:00;;;;;;;1.98;1.33;;;20.80;99.90;;;;;;5038216;28;20036;-83
2022/06/12 08:14:26;;;;;;;3.90;1.42;;;20.80;99.90;;;;;;5038091;28;20032;-83
2022/06/12 08:16:52;;;;;;;4.28;1.80;;;20.80;99.90;;;;;;5056402;28;20458;-83
2022/06/12 08:22:04;;;;;;;3.92;1.50;;;20.90;99.80;;;;;;5056193;28;20139;-83
2022/06/12 08:24:31;;;;;;;2.58;1.40;;;20.90;99.90;;;;;;5038052;28;20039;-84
2022/06/12 08:26:57;;;;;;;3.20;1.60;;;20.90;99.80;;;;;;5037884;28;20048;-83
2022/06/12 08:29:24;;;;;;;4.00;1.50;;;20.90;99.70;;;;;;5037720;28;20028;-84
2022/06/12 08:31:57;;;;;;;2.17;1.42;;;20.90;99.70;;;;;;5037812;28;20215;-83
2022/06/12 08:34:30;;;;;;;3.08;1.67;;;20.90;99.60;;;;;;5055654;28;20427;-83
2022/06/12 08:37:00;;;;;;;2.33;1.50;;;21.00;99.60;;;;;;5037443;28;20017;-83
2022/06/12 08:39:27;;;;;;;3.10;1.40;;;21.00;99.60;;;;;;5017963;28;20476;-83
2022/06/12 08:42:05;;;;;;;3.65;1.50;;;21.00;99.50;;;;;;5017725;28;20052;-83
2022/06/12 08:44:51;;;;;;;3.83;1.58;;;21.00;99.60;;;;;;5017799;28;20036;-84
2022/06/12 08:47:26;;;;;;;2.10;1.38;;;21.00;99.50;;;;;;5034657;28;20046;-83
2022/06/12 08:50:07;;;;;;;5.50;1.40;;;21.00;99.40;;;;;;5034816;28;20489;-83
2022/06/12 08:52:46;;;;;;;2.55;1.45;;;21.10;99.40;;;;;;5017737;28;20022;-84
2022/06/12 08:55:34;;;;;;;2.75;1.58;;;21.10;99.30;;;;;;5017713;28;20523;-84
2022/06/12 08:58:21;;;;;;;2.03;1.30;;;21.20;99.30;;;;;;5035406;28;20035;-83
2022/06/12 09:00:47;;;;;;;3.67;1.52;;;21.20;99.30;;;;;;5017517;28;20440;-83
2022/06/12 09:03:19;;;;;;;5.13;1.48;;;21.20;99.30;;;;;;5035330;28;20032;-84
2022/06/12 09:05:50;;;;;;;3.15;1.55;;;21.20;99.50;;;;;;5035538;28;20022;-83
2022/06/12 09:08:37;;;;;;;2.10;1.35;;;21.20;99.20;;;;;;5017565;28;20057;-83
2022/06/12 09:11:25;;;;;;;6.68;1.42;;;21.30;99.10;;;;;;5034760;28;20033;-84
2022/06/12 09:13:56;;;;;;;3.17;1.55;;;21.30;99.10;;;;;;5017351;28;20476;-83
2022/06/12 09:16:33;;;;;;;3.05;1.40;;;21.30;99.10;;;;;;5018428;28;20025;-83
2022/06/12 09:19:15;;;;;;;3.20;1.58;;;21.30;99.00;;;;;;5035296;28;20018;-83
2022/06/12 09:21:58;;;;;;;2.55;1.27;;;21.30;99.00;;;;;;5034965;28;20017;-83
2022/06/12 09:24:43;;;;;;;2.42;1.20;;;21.40;99.00;;;;;;5017266;28;20366;-84
2022/06/12 09:27:18;;;;;;;3.33;1.67;;;21.40;99.00;;;;;;5034951;28;20022;-84
2022/06/12 09:30:08;;;;;;;3.05;1.50;;;21.40;98.90;;;;;;5017081;28;20029;-83
2022/06/12 09:33:15;;;;;;;1.95;1.15;;;21.50;98.90;;;;;;5005292;28;20388;-84
2022/06/12 09:36:14;;;;;;;4.30;1.30;;;21.50;98.90;;;;;;5004059;28;20040;-84
2022/06/12 09:38:45;;;;;;;2.83;1.40;;;21.50;98.80;;;;;;5031069;28;20055;-83
2022/06/12 09:41:12;;;;;;;3.17;1.20;;;21.50;98.80;;;;;;5036681;28;20029;-83
2022/06/12 09:43:40;;;;;;;3.33;1.70;;;21.60;98.70;;;;;;5037454;28;20061;-83
2022/06/12 09:46:40;;;;;;;4.10;1.30;;;21.60;98.70;;;;;;5036653;28;20123;-84
2022/06/12 09:49:05;;;;;;;6.95;1.50;;;22.00;98.00;;;;;;5036576;28;20178;-83
2022/06/12 09:51:42;;;;;;;4.03;1.60;;;22.30;97.60;;;;;;5036344;28;20495;-83
2022/06/12 09:54:25;;;;;;;2.55;1.60;;;22.30;97.50;;;;;;5036472;28;20392;-83
2022/06/12 09:57:02;;;;;;;3.25;1.42;;;22.30;97.60;;;;;;5036314;28;20024;-84
2022/06/12 09:59:48;;;;;;;4.70;1.60;;;22.20;97.60;;;;;;5054001;28;20025;-84
2022/06/12 10:02:42;;;;;;;6.63;1.98;;;22.20;97.70;;;;;;5036242;28;20029;-84
2022/06/12 10:05:15;;;;;;;3.70;1.58;;;22.10;97.70;;;;;;5054402;28;20078;-84
2022/06/12 10:07:52;;;;;;;3.77;1.50;;;22.10;97.80;;;;;;5054086;28;20057;-84
2022/06/12 10:10:32;;;;;;;3.60;1.50;;;22.00;97.90;;;;;;5054043;28;20033;-83
2022/06/12 10:13:03;;;;;;;4.40;1.50;;;22.00;98.00;;;;;;5053993;28;20017;-83
2022/06/12 10:15:38;;;;;;;4.82;1.75;;;21.90;98.00;;;;;;5036002;28;20028;-84
2022/06/12 10:18:12;;;;;;;2.40;1.20;;;21.90;98.10;;;;;;5035933;28;20121;-83
2022/06/12 10:20:43;;;;;;;4.72;1.63;;;21.80;98.10;;;;;;5035955;28;20396;-83
2022/06/12 10:23:11;;;;;;;3.05;1.23;;;21.80;98.20;;;;;;5035878;28;20028;-83
2022/06/12 10:25:40;;;;;;;4.28;1.60;;;21.80;98.20;;;;;;5053669;28;20021;-83
2022/06/12 10:28:15;;;;;;;2.95;1.50;;;21.80;98.30;;;;;;5035819;28;20025;-83
2022/06/12 10:30:56;;;;;;;2.08;1.27;;;21.70;98.30;;;;;;5035654;28;20127;-83
2022/06/12 10:33:41;;;;;;;6.53;1.35;;;21.70;98.20;;;;;;5053601;28;20551;-84
2022/06/12 10:36:26;;;;;;;3.47;1.20;;;21.80;98.20;;;;;;5035682;28;20021;-83
2022/06/12 10:39:04;;;;;;;4.38;1.40;;;21.80;98.20;;;;;;5037228;28;20515;-83
2022/06/12 10:41:31;;;;;;;3.30;1.63;;;21.90;98.10;;;;;;5015820;28;20397;-84
2022/06/12 10:43:57;;;;;;;2.45;1.25;;;21.90;98.10;;;;;;5015788;28;20037;-83
2022/06/12 10:46:30;;;;;;;3.45;1.23;;;21.90;98.00;;;;;;5015774;28;20052;-84
2022/06/12 10:48:58;;;;;;;3.45;1.30;;;22.00;98.00;;;;;;5015688;28;20087;-83
2022/06/12 10:51:34;;;;;;;4.60;1.40;;;22.00;97.90;;;;;;5015609;28;20026;-83
2022/06/12 10:54:24;;;;;;;4.47;1.40;;;22.10;97.90;;;;;;5015610;28;20030;-83
2022/06/12 10:57:05;;;;;;;3.42;1.30;;;22.10;97.80;;;;;;5020114;28;20048;-83
2022/06/12 10:59:33;;;;;;;2.90;1.27;;;22.20;97.80;;;;;;5015529;28;20029;-83
2022/06/12 11:02:26;;;;;;;4.40;1.30;;;22.20;97.60;;;;;;5033264;28;20018;-84
2022/06/12 11:05:02;;;;;;;3.83;1.33;;;22.30;97.60;;;;;;5015586;28;20021;-84
2022/06/12 11:07:30;;;;;;;2.53;1.13;;;22.30;97.50;;;;;;5033530;28;20037;-84
2022/06/12 11:10:05;;;;;;;2.70;1.20;;;22.30;97.40;;;;;;5033116;28;20087;-83
2022/06/12 11:12:50;;;;;;;1.95;1.20;;;22.30;97.50;;;;;;5018221;28;20115;-84
2022/06/12 11:15:30;;;;;;;1.77;1.10;;;22.30;97.40;;;;;;5037329;28;20026;-84
2022/06/12 11:18:28;;;;;;;2.60;1.15;;;22.30;97.40;;;;;;5019542;28;20052;-83
2022/06/12 11:21:15;;;;;;;4.25;1.20;;;22.30;97.40;;;;;;4966388;28;20040;-84
2022/06/12 11:24:03;;;;;;;3.03;1.30;;;22.30;97.40;;;;;;5019452;28;20469;-84
2022/06/12 11:26:46;;;;;;;2.55;1.38;;;22.30;97.50;;;;;;5037151;28;20093;-84
2022/06/12 11:29:56;;;;;;;6.83;1.67;;;22.20;97.50;;;;;;5019333;28;20018;-84
2022/06/12 11:32:21;;;;;;;3.00;1.40;;;22.30;97.60;;;;;;5037339;28;20022;-84
2022/06/12 11:35:03;;;;;;;1.95;1.10;;;22.20;97.60;;;;;;5036961;28;20080;-84
2022/06/12 11:37:47;;;;;;;2.35;1.30;;;22.20;97.60;;;;;;5023623;28;20127;-84
2022/06/12 11:40:50;;;;;;;2.50;1.30;;;22.20;97.60;;;;;;5056827;28;20380;-84
2022/06/12 11:43:31;;;;;;;3.92;1.30;;;22.20;97.50;;;;;;5039115;28;20040;-84
2022/06/12 11:46:15;;;;;;;4.72;1.55;;;22.30;97.60;;;;;;5056736;28;20476;-84
2022/06/12 11:48:46;;;;;;;2.63;1.20;;;22.20;97.50;;;;;;5056722;28;20017;-84
2022/06/12 11:51:21;;;;;;;3.30;1.83;;;22.20;97.50;;;;;;5038643;28;20488;-84
2022/06/12 11:53:57;;;;;;;2.13;1.02;;;22.20;97.60;;;;;;5038706;28;20040;-84
2022/06/12 11:56:41;;;;;;;3.33;1.20;;;22.20;97.60;;;;;;5056559;28;20021;-84
2022/06/12 11:59:31;;;;;;;2.70;1.23;;;22.20;97.60;;;;;;5038806;28;20062;-84
2022/06/12 12:02:12;;;;;;;3.78;1.50;;;22.20;97.60;;;;;;5038478;28;20435;-84
2022/06/12 12:05:08;;;;;;;2.35;1.13;;;22.20;97.70;;;;;;5056662;28;20025;-84
2022/06/12 12:07:55;;;;;;;4.45;1.42;;;22.20;97.70;;;;;;5038347;28;20029;-84
2022/06/12 12:10:43;;;;;;;2.17;1.23;;;22.10;97.70;;;;;;5055656;28;20065;-84
2022/06/12 12:13:14;;;;;;;2.75;1.33;;;22.20;97.70;;;;;;5038249;28;20017;-84
2022/06/12 12:15:48;;;;;;;3.50;1.55;;;22.20;97.70;;;;;;5056502;28;20563;-84
2022/06/12 12:18:37;;;;;;;;;;;22.30;97.80;;;;;;5038644;28;20017;-83
2022/06/12 12:21:11;;;;;;;3.67;1.25;;;22.30;97.70;;;;;;5032787;28;20288;-84
2022/06/12 12:23:42;;;;;;;3.45;1.30;;;22.30;97.70;;;;;;5021625;28;20056;-84
2022/06/12 12:26:25;;;;;;;1.75;1.27;;;22.30;97.60;;;;;;5038078;28;20110;-84
2022/06/12 12:28:58;;;;;;;3.60;1.20;;;22.40;97.50;;;;;;5037958;28;20093;-84
2022/06/12 12:31:26;;;;;;;3.50;1.10;;;22.50;97.50;;;;;;5056044;28;20028;-84
2022/06/12 12:33:54;;;;;;;2.58;1.35;;;22.50;97.50;;;;;;5037927;28;20108;-84
2022/06/12 12:42:05;;;;;;;2.97;1.38;;;22.50;97.50;;;;;;5036253;28;20163;-84
2022/06/12 12:44:34;;;;;;;2.47;1.13;;;22.50;97.50;;;;;;5017925;28;20025;-84
2022/06/12 12:47:00;;;;;;;3.42;1.27;;;22.50;97.50;;;;;;5017860;28;20033;-84
2022/06/12 12:49:29;;;;;;;3.53;1.27;;;22.60;97.60;;;;;;5035467;28;20025;-84
2022/06/12 12:52:10;;;;;;;3.85;1.45;;;22.60;97.60;;;;;;5017777;28;20095;-84
2022/06/12 12:54:43;;;;;;;3.03;1.40;;;22.60;97.50;;;;;;5017725;28;20021;-84
2022/06/12 12:57:10;;;;;;;3.70;1.10;;;22.70;97.40;;;;;;5017621;28;20021;-84
2022/06/12 12:59:43;;;;;;;4.18;1.20;;;22.70;97.40;;;;;;5034059;28;20029;-84
2022/06/12 13:02:45;;;;;;;1.65;1.35;;;22.70;97.40;;;;;;5017610;28;20021;-84
2022/06/12 13:05:26;;;;;;;1.58;1.20;;;22.70;97.40;;;;;;5017489;28;20099;-84
2022/06/12 13:08:07;;;;;;;2.05;1.20;;;22.70;97.30;;;;;;5017475;28;20077;-84
2022/06/12 13:11:00;;;;;;;2.28;1.20;;;22.80;97.30;;;;;;5035143;28;20029;-84
2022/06/12 13:13:47;;;;;;;3.65;1.42;;;22.70;97.30;;;;;;5035429;28;20068;-84
2022/06/12 13:16:56;;;;;;;1.88;1.23;;;22.80;97.40;;;;;;5035068;28;20385;-84
2022/06/12 13:19:46;;;;;;;2.33;1.25;;;22.80;97.30;;;;;;5017282;28;20025;-84
2022/06/12 13:22:37;;;;;;;4.03;1.17;;;22.90;97.20;;;;;;5017214;28;20071;-84
2022/06/12 13:25:07;;;;;;;2.25;1.27;;;23.10;97.00;;;;;;5017181;28;20021;-84
2022/06/12 13:27:46;;;;;;;1.88;1.25;;;23.30;96.70;;;;;;5017163;28;20032;-84
2022/06/12 13:30:25;;;;;;;3.15;0.98;;;23.30;96.50;;;;;;5016962;28;20025;-84
2022/06/12 13:32:51;;;;;;;3.28;1.30;;;23.40;96.60;;;;;;5017077;28;20502;-84
2022/06/12 13:35:32;;;;;;;2.42;1.00;;;23.50;96.60;;;;;;5034009;28;20068;-84
2022/06/12 13:38:04;;;;;;;2.95;1.27;;;23.70;96.40;;;;;;5025252;28;20119;-84
2022/06/12 13:40:34;;;;;;;3.58;1.20;;;23.80;96.20;;;;;;5036679;28;20032;-84
2022/06/12 13:43:27;;;;;;;3.30;1.27;;;23.90;96.10;;;;;;5054752;28;20032;-85